High gust

Not for real navigation. The accuracy of this data is not assured See disclaimer for more information



ICAO NAME COUNTRY WIND Kt GUST Kt VIS m TEMP/DEW C BARO METAR
KMWN Mount Washington NH United States 61 70 9999 -7/-7 29.92 KMWN 240355Z 27061G70KT 0SM -SHSN FZFG BLSN VV000 M07/M07 RMK VRY LGT ICG
EGCK 32 53 3700 11/10 29.32 EGCK 240450Z AUTO 20032G53KT 3700 RA BKN002/// OVC025/// 11/10 Q0993 RERA
EGOV Valley United Kingdom 42 52 1500 10/10 29.32 EGOV 240350Z AUTO 18042G52KT 1500 RA BKN005/// SCT015/// 10/10 Q0993
CWZQ Grand Etang, N. S. Canada 36 52 9999 8/6 29.92 CWZQ 240440Z AUTO 15036G52KT 08/06 RMK AO1 T00760058
EICK Cork Airport Ireland 26 46 9999 7/5 29.38 EICK 240430Z 24026G46KT 210V270 9999 -RA FEW008 SCT013 BKN025 07/05 Q0995 NOSIG

Show more